Time;durP1;ratioP1;P1;durP2;ratioP2;P2;SDS_P1;SDS_P2;PMS_P1;PMS_P2;Temp;Humidity;BMP_temperature;BMP_pressure;BME280_temperature;BME280_humidity;BME280_pressure;Samples;Min_cycle;Max_cycle;Signal;HPM_P1;HPM_P2
2021/03/24 00:00:23;;;;;;;17.40;12.60;;;;;;;;;;4955646;29;20256;-78
2021/03/24 00:02:49;;;;;;;16.08;12.45;;;;;;;;;;4955426;29;20321;-81
2021/03/24 00:05:17;;;;;;;20.38;13.85;;;;;;;;;;4955495;29;20673;-79
2021/03/24 00:10:47;;;;;;;17.08;12.18;;;;;;;;;;4955661;29;20210;-80
2021/03/24 00:13:13;;;;;;;16.85;12.27;;;;;;;;;;4955364;29;20176;-80
2021/03/24 00:15:40;;;;;;;19.67;13.70;;;;;;;;;;4938072;29;20545;-80
2021/03/24 00:18:07;;;;;;;17.80;13.40;;;;;;;;;;4955243;29;20183;-80
2021/03/24 00:20:33;;;;;;;18.77;11.90;;;;;;;;;;4955266;29;20206;-80
2021/03/24 00:23:00;;;;;;;17.17;12.90;;;;;;;;;;4954764;29;20211;-80
2021/03/24 00:25:26;;;;;;;17.15;13.32;;;;;;;;;;4955166;29;20655;-79
2021/03/24 00:27:52;;;;;;;18.55;12.50;;;;;;;;;;4955217;29;20190;-79
2021/03/24 00:30:24;;;;;;;17.45;13.05;;;;;;;;;;4955219;29;20172;-79
2021/03/24 00:32:50;;;;;;;19.63;12.73;;;;;;;;;;4955074;29;20535;-81
2021/03/24 00:35:16;;;;;;;19.75;13.52;;;;;;;;;;4955100;29;20643;-81
2021/03/24 00:40:47;;;;;;;18.92;12.68;;;;;;;;;;4955173;29;20187;-79
2021/03/24 00:43:13;;;;;;;17.70;12.77;;;;;;;;;;4954987;29;20214;-80
2021/03/24 00:45:40;;;;;;;16.83;13.90;;;;;;;;;;4954784;29;20168;-79
2021/03/24 00:48:07;;;;;;;14.77;12.15;;;;;;;;;;4937737;29;20262;-80
2021/03/24 00:50:34;;;;;;;17.17;13.85;;;;;;;;;;4954791;29;20184;-80
2021/03/24 00:56:04;;;;;;;22.15;13.40;;;;;;;;;;4954716;29;20179;-80
2021/03/24 00:58:30;;;;;;;17.27;12.25;;;;;;;;;;4954851;29;20176;-79
2021/03/24 01:00:56;;;;;;;16.88;12.35;;;;;;;;;;4954817;29;20550;-80
2021/03/24 01:03:22;;;;;;;20.05;12.38;;;;;;;;;;4954770;29;20211;-79
2021/03/24 01:05:49;;;;;;;15.77;12.70;;;;;;;;;;4954838;29;20168;-80
2021/03/24 01:08:20;;;;;;;16.00;12.85;;;;;;;;;;4954520;29;20419;-78
2021/03/24 01:10:47;;;;;;;16.40;11.50;;;;;;;;;;4954710;29;20172;-80
2021/03/24 01:13:14;;;;;;;14.05;11.45;;;;;;;;;;4954631;29;20644;-77
2021/03/24 01:15:40;;;;;;;15.90;12.00;;;;;;;;;;4954834;29;20299;-79
2021/03/24 01:18:06;;;;;;;19.10;12.18;;;;;;;;;;4954371;29;20594;-80
2021/03/24 01:20:33;;;;;;;16.57;11.93;;;;;;;;;;4954758;29;20243;-80
2021/03/24 01:26:03;;;;;;;15.85;11.55;;;;;;;;;;4954775;29;20182;-79
2021/03/24 01:28:30;;;;;;;20.00;12.68;;;;;;;;;;4956954;28;20171;-79
2021/03/24 01:30:59;;;;;;;17.83;14.20;;;;;;;;;;4958131;29;20534;-76
2021/03/24 01:33:26;;;;;;;17.38;11.88;;;;;;;;;;4958188;29;20187;-81
2021/03/24 01:41:40;;;;;;;17.55;13.35;;;;;;;;;;4958131;29;20232;-81
2021/03/24 01:44:06;;;;;;;18.25;12.50;;;;;;;;;;4958119;29;20192;-79
2021/03/24 01:46:35;;;;;;;14.67;11.80;;;;;;;;;;4957964;29;20180;-77
2021/03/24 01:49:25;;;;;;;17.45;13.15;;;;;;;;;;4957939;29;20778;-80
2021/03/24 01:51:53;;;;;;;16.88;12.43;;;;;;;;;;4948066;29;20246;-81
2021/03/24 01:54:24;;;;;;;25.17;12.30;;;;;;;;;;4957863;29;20208;-78
2021/03/24 01:56:53;;;;;;;17.52;12.52;;;;;;;;;;4957942;29;20619;-81
2021/03/24 01:59:19;;;;;;;17.15;12.52;;;;;;;;;;4957931;29;20180;-79
2021/03/24 02:01:45;;;;;;;15.80;13.18;;;;;;;;;;4957733;29;20199;-79
2021/03/24 02:04:11;;;;;;;17.30;11.30;;;;;;;;;;4957739;29;20238;-79
2021/03/24 02:06:37;;;;;;;25.00;12.40;;;;;;;;;;4940360;29;20219;-79
2021/03/24 02:09:06;;;;;;;17.50;13.00;;;;;;;;;;4957548;29;20180;-79
2021/03/24 02:11:34;;;;;;;20.17;12.45;;;;;;;;;;4957485;29;20423;-80
2021/03/24 02:14:30;;;;;;;20.90;12.98;;;;;;;;;;4957736;29;20222;-80
2021/03/24 02:16:56;;;;;;;19.35;11.52;;;;;;;;;;4889201;29;20206;-79
2021/03/24 02:19:28;;;;;;;14.25;11.10;;;;;;;;;;4957359;29;20172;-77
2021/03/24 02:21:54;;;;;;;16.77;13.77;;;;;;;;;;4957271;29;20214;-80
2021/03/24 02:24:39;;;;;;;16.65;12.05;;;;;;;;;;4957227;29;20191;-80
2021/03/24 02:27:07;;;;;;;17.45;12.10;;;;;;;;;;4957104;29;20180;-78
2021/03/24 02:29:34;;;;;;;23.13;12.05;;;;;;;;;;4957086;29;20168;-80
2021/03/24 02:32:03;;;;;;;17.15;12.30;;;;;;;;;;4957067;29;20204;-80
2021/03/24 02:34:30;;;;;;;13.60;11.00;;;;;;;;;;4956944;29;20251;-80
2021/03/24 02:36:57;;;;;;;17.88;11.85;;;;;;;;;;4956132;29;20175;-79
2021/03/24 02:39:24;;;;;;;15.43;12.43;;;;;;;;;;4956556;28;20534;-78
2021/03/24 02:41:50;;;;;;;17.60;12.27;;;;;;;;;;4956746;29;20210;-81
2021/03/24 02:44:17;;;;;;;19.88;12.88;;;;;;;;;;4956863;29;20203;-79
2021/03/24 02:46:43;;;;;;;21.25;13.35;;;;;;;;;;4956796;29;20190;-79
2021/03/24 02:49:10;;;;;;;17.05;11.82;;;;;;;;;;4956809;29;20199;-77
2021/03/24 02:51:38;;;;;;;24.38;14.13;;;;;;;;;;4956688;29;20168;-80
2021/03/24 02:54:05;;;;;;;17.70;12.73;;;;;;;;;;4939371;29;20679;-80
2021/03/24 02:56:32;;;;;;;22.48;13.80;;;;;;;;;;4956575;29;20589;-78
2021/03/24 02:58:58;;;;;;;19.65;13.25;;;;;;;;;;4956857;29;20164;-76
2021/03/24 03:01:30;;;;;;;20.77;13.43;;;;;;;;;;4956501;29;20176;-80
2021/03/24 03:04:06;;;;;;;16.85;12.90;;;;;;;;;;4956580;29;20184;-79
2021/03/24 03:06:32;;;;;;;26.00;13.80;;;;;;;;;;4939277;29;20709;-77
2021/03/24 03:09:01;;;;;;;21.83;13.80;;;;;;;;;;4956502;29;20171;-81
2021/03/24 03:11:34;;;;;;;21.67;15.20;;;;;;;;;;4957117;29;20933;-80
2021/03/24 03:14:03;;;;;;;20.27;14.00;;;;;;;;;;4939270;29;20270;-81
2021/03/24 03:16:41;;;;;;;23.75;14.98;;;;;;;;;;4956606;29;20628;-78
2021/03/24 03:19:16;;;;;;;20.77;13.30;;;;;;;;;;4956600;29;20563;-80
2021/03/24 03:21:44;;;;;;;17.05;13.38;;;;;;;;;;4955913;29;20647;-78
2021/03/24 03:24:11;;;;;;;23.67;14.90;;;;;;;;;;4956091;29;20168;-77
2021/03/24 03:26:39;;;;;;;17.02;12.85;;;;;;;;;;4956305;29;20515;-81
2021/03/24 03:29:07;;;;;;;21.50;14.82;;;;;;;;;;4956302;29;20187;-82
2021/03/24 03:31:35;;;;;;;18.90;12.75;;;;;;;;;;4956071;29;20638;-79
2021/03/24 03:34:01;;;;;;;16.83;10.90;;;;;;;;;;4956015;29;20233;-81
2021/03/24 03:42:18;;;;;;;16.50;14.10;;;;;;;;;;4956186;29;20215;-80
2021/03/24 03:44:44;;;;;;;17.52;12.10;;;;;;;;;;4955750;29;20255;-79
2021/03/24 03:47:12;;;;;;;16.65;11.95;;;;;;;;;;4955845;29;20535;-81
2021/03/24 03:49:39;;;;;;;18.63;13.88;;;;;;;;;;4955590;28;20168;-79
2021/03/24 03:52:04;;;;;;;17.90;12.68;;;;;;;;;;4955182;29;20519;-78
2021/03/24 03:54:38;;;;;;;18.60;13.60;;;;;;;;;;4955717;29;20238;-81
2021/03/24 03:57:13;;;;;;;18.85;12.98;;;;;;;;;;4955931;29;20424;-78
2021/03/24 03:59:41;;;;;;;16.48;12.90;;;;;;;;;;4955570;29;20163;-77
2021/03/24 04:02:10;;;;;;;25.17;16.55;;;;;;;;;;4955401;29;20551;-77
2021/03/24 04:04:40;;;;;;;21.02;13.38;;;;;;;;;;4955281;29;20183;-81
2021/03/24 04:07:13;;;;;;;19.52;13.63;;;;;;;;;;4955120;29;20164;-82
2021/03/24 04:09:40;;;;;;;19.27;14.38;;;;;;;;;;4955292;29;20168;-81
2021/03/24 04:12:08;;;;;;;22.38;12.73;;;;;;;;;;4955435;29;20643;-81
2021/03/24 04:14:34;;;;;;;19.70;15.13;;;;;;;;;;4955313;29;20179;-80
2021/03/24 04:17:00;;;;;;;20.80;14.80;;;;;;;;;;4955142;29;20254;-81
2021/03/24 04:19:30;;;;;;;19.25;14.95;;;;;;;;;;4955296;29;20234;-81
2021/03/24 04:22:01;;;;;;;21.30;14.10;;;;;;;;;;4955055;29;20204;-81
2021/03/24 04:24:32;;;;;;;20.85;15.45;;;;;;;;;;4955190;29;20203;-77
2021/03/24 04:26:59;;;;;;;20.13;13.90;;;;;;;;;;4955175;29;20178;-82
2021/03/24 04:29:31;;;;;;;21.25;13.60;;;;;;;;;;4955145;29;20194;-81
2021/03/24 04:32:00;;;;;;;21.50;15.00;;;;;;;;;;4955227;29;20176;-79
2021/03/24 04:34:26;;;;;;;21.30;13.80;;;;;;;;;;4954829;29;20172;-79
2021/03/24 04:37:01;;;;;;;16.20;12.82;;;;;;;;;;4937933;29;20690;-79
2021/03/24 04:39:30;;;;;;;19.65;13.50;;;;;;;;;;4955024;29;20229;-77
2021/03/24 04:41:57;;;;;;;22.30;14.23;;;;;;;;;;4956609;29;20225;-78
2021/03/24 04:44:28;;;;;;;20.30;14.90;;;;;;;;;;4956997;29;20520;-80
2021/03/24 04:47:14;;;;;;;18.40;13.85;;;;;;;;;;4954885;29;20182;-80
2021/03/24 04:49:50;;;;;;;17.60;13.15;;;;;;;;;;4954220;29;20670;-78
2021/03/24 04:58:27;;;;;;;20.42;13.05;;;;;;;;;;4953858;29;20484;-79
2021/03/24 05:01:00;;;;;;;21.50;13.88;;;;;;;;;;4952974;29;20685;-76
2021/03/24 05:03:29;;;;;;;20.23;13.95;;;;;;;;;;4955712;29;20214;-78
2021/03/24 05:05:57;;;;;;;16.95;12.20;;;;;;;;;;4956819;29;20168;-77
2021/03/24 05:08:32;;;;;;;20.70;13.93;;;;;;;;;;4956555;29;20266;-78
2021/03/24 05:11:00;;;;;;;28.33;13.30;;;;;;;;;;4956991;29;20175;-78
2021/03/24 05:13:30;;;;;;;19.65;13.85;;;;;;;;;;4956976;29;20188;-80
2021/03/24 05:16:01;;;;;;;21.98;12.40;;;;;;;;;;4956792;29;20238;-77
2021/03/24 05:18:27;;;;;;;20.40;13.85;;;;;;;;;;4957011;29;20530;-76
2021/03/24 05:21:06;;;;;;;19.70;12.90;;;;;;;;;;4956872;29;20179;-77
2021/03/24 05:23:32;;;;;;;15.85;12.90;;;;;;;;;;4956388;29;20217;-79
2021/03/24 05:26:04;;;;;;;20.88;13.23;;;;;;;;;;4956962;29;20175;-79
2021/03/24 05:28:39;;;;;;;15.02;12.32;;;;;;;;;;4956648;29;20206;-78
2021/03/24 05:31:07;;;;;;;20.25;14.23;;;;;;;;;;4956581;29;20278;-78
2021/03/24 05:33:38;;;;;;;24.77;14.15;;;;;;;;;;4956515;29;20176;-79
2021/03/24 05:36:12;;;;;;;20.55;13.32;;;;;;;;;;4956656;29;20175;-79
2021/03/24 05:38:42;;;;;;;22.38;13.02;;;;;;;;;;4956326;29;20256;-79
2021/03/24 05:41:12;;;;;;;20.83;12.75;;;;;;;;;;4957358;29;20274;-78
2021/03/24 05:43:54;;;;;;;19.02;13.80;;;;;;;;;;4939864;29;20578;-78
2021/03/24 05:46:26;;;;;;;23.17;13.60;;;;;;;;;;4957024;29;20198;-76
2021/03/24 05:49:04;;;;;;;20.73;14.13;;;;;;;;;;4957005;29;20174;-76
2021/03/24 05:51:40;;;;;;;20.55;13.45;;;;;;;;;;4956888;29;20176;-78
2021/03/24 05:54:13;;;;;;;18.88;13.50;;;;;;;;;;4956928;29;20302;-78
2021/03/24 05:56:42;;;;;;;18.95;12.75;;;;;;;;;;4939646;29;20197;-76
2021/03/24 05:59:23;;;;;;;20.17;13.95;;;;;;;;;;4956690;29;20171;-77
2021/03/24 06:01:57;;;;;;;22.90;14.50;;;;;;;;;;4956653;29;20211;-78
2021/03/24 06:04:28;;;;;;;16.73;13.32;;;;;;;;;;4956743;29;20184;-77
2021/03/24 06:07:01;;;;;;;22.67;14.82;;;;;;;;;;4956606;29;20538;-78
2021/03/24 06:09:27;;;;;;;22.33;13.10;;;;;;;;;;4956731;29;20207;-78
2021/03/24 06:12:11;;;;;;;17.50;12.80;;;;;;;;;;4956969;29;20203;-79
2021/03/24 06:14:56;;;;;;;20.13;13.95;;;;;;;;;;4956241;28;20498;-77
2021/03/24 06:17:40;;;;;;;19.33;13.07;;;;;;;;;;4956154;29;20182;-79
2021/03/24 06:20:09;;;;;;;19.98;14.07;;;;;;;;;;4956584;29;20246;-78
2021/03/24 06:25:42;;;;;;;23.20;15.95;;;;;;;;;;4956365;29;20222;-76
2021/03/24 06:28:17;;;;;;;22.10;15.55;;;;;;;;;;4956164;29;20630;-78
2021/03/24 06:30:43;;;;;;;28.23;14.82;;;;;;;;;;4955893;29;20235;-78
2021/03/24 06:33:15;;;;;;;17.63;13.73;;;;;;;;;;4956061;29;20199;-75
2021/03/24 06:35:41;;;;;;;20.80;14.65;;;;;;;;;;4955752;29;20416;-75
2021/03/24 06:41:13;;;;;;;22.42;14.25;;;;;;;;;;4955419;29;20477;-74
2021/03/24 06:43:42;;;;;;;22.85;14.63;;;;;;;;;;4955240;29;20737;-75
2021/03/24 06:46:26;;;;;;;20.63;13.23;;;;;;;;;;4955602;29;20168;-76
2021/03/24 06:49:11;;;;;;;20.08;14.57;;;;;;;;;;4953932;29;20255;-76
2021/03/24 06:51:37;;;;;;;16.63;13.90;;;;;;;;;;4954715;29;20174;-79
2021/03/24 06:57:25;;;;;;;25.05;13.43;;;;;;;;;;4954196;29;20481;-80
2021/03/24 07:00:04;;;;;;;19.55;12.02;;;;;;;;;;4954610;29;20284;-83
2021/03/24 07:02:40;;;;;;;18.50;12.27;;;;;;;;;;4957690;29;20282;-80
2021/03/24 07:05:18;;;;;;;15.60;12.63;;;;;;;;;;4954899;29;20466;-81
2021/03/24 07:07:50;;;;;;;20.53;13.50;;;;;;;;;;4953967;29;20466;-81
2021/03/24 07:13:19;;;;;;;16.40;13.43;;;;;;;;;;4954855;29;20411;-81
2021/03/24 07:15:54;;;;;;;23.87;14.90;;;;;;;;;;4954486;29;20951;-81
2021/03/24 07:18:20;;;;;;;16.20;13.47;;;;;;;;;;4954259;29;20982;-80
2021/03/24 07:21:04;;;;;;;17.70;15.77;;;;;;;;;;4954053;29;20510;-80
2021/03/24 07:23:36;;;;;;;18.60;14.20;;;;;;;;;;4953389;29;20467;-81
2021/03/24 07:26:07;;;;;;;17.03;12.87;;;;;;;;;;4934710;29;20435;-79
2021/03/24 07:28:32;;;;;;;17.03;13.17;;;;;;;;;;4952890;29;20903;-79
2021/03/24 07:31:22;;;;;;;17.87;12.77;;;;;;;;;;4952917;29;20426;-79
2021/03/24 07:33:51;;;;;;;16.20;12.83;;;;;;;;;;4951533;29;20431;-80
2021/03/24 07:36:40;;;;;;;16.70;13.40;;;;;;;;;;4952960;29;20421;-80
2021/03/24 07:39:26;;;;;;;16.87;14.50;;;;;;;;;;4934920;29;20434;-80
2021/03/24 07:42:04;;;;;;;16.03;12.93;;;;;;;;;;4934935;29;20484;-80
2021/03/24 07:44:49;;;;;;;14.27;12.77;;;;;;;;;;4935501;29;20757;-80
2021/03/24 07:47:38;;;;;;;16.07;12.93;;;;;;;;;;4952813;29;20476;-80
2021/03/24 07:50:10;;;;;;;20.97;15.60;;;;;;;;;;4952432;29;20506;-80
2021/03/24 07:52:52;;;;;;;19.47;13.47;;;;;;;;;;4952434;29;20490;-80
2021/03/24 07:55:41;;;;;;;21.83;13.53;;;;;;;;;;4952242;29;20419;-80
2021/03/24 07:58:26;;;;;;;17.70;13.97;;;;;;;;;;4942483;29;20443;-80
2021/03/24 08:01:00;;;;;;;17.47;14.80;;;;;;;;;;4952655;29;20426;-83
2021/03/24 08:03:26;;;;;;;19.97;13.50;;;;;;;;;;4952302;29;20467;-82
2021/03/24 08:06:09;;;;;;;21.37;14.30;;;;;;;;;;4952070;29;20442;-81
2021/03/24 08:11:54;;;;;;;17.63;13.63;;;;;;;;;;4952527;29;21019;-81
2021/03/24 08:14:32;;;;;;;21.27;16.10;;;;;;;;;;4951251;29;20439;-80
2021/03/24 08:17:03;;;;;;;17.63;13.73;;;;;;;;;;4949443;29;20458;-81
2021/03/24 08:19:29;;;;;;;19.00;13.10;;;;;;;;;;4949438;29;20412;-78
2021/03/24 08:22:09;;;;;;;15.13;13.60;;;;;;;;;;4948020;29;20494;-80
2021/03/24 08:27:46;;;;;;;14.83;13.23;;;;;;;;;;4950085;29;20422;-81
2021/03/24 08:30:16;;;;;;;15.87;13.40;;;;;;;;;;4950438;29;20426;-78
2021/03/24 08:33:01;;;;;;;16.40;12.80;;;;;;;;;;4950066;29;20440;-78
2021/03/24 08:35:29;;;;;;;16.30;12.80;;;;;;;;;;4949996;29;20510;-78
2021/03/24 08:38:14;;;;;;;13.90;12.07;;;;;;;;;;4949214;28;20526;-76
2021/03/24 08:43:55;;;;;;;13.90;12.40;;;;;;;;;;4949635;29;20501;-76
2021/03/24 08:46:27;;;;;;;14.03;12.63;;;;;;;;;;4949711;29;20477;-77
2021/03/24 08:49:12;;;;;;;14.73;13.07;;;;;;;;;;4949741;29;20431;-79
2021/03/24 08:51:38;;;;;;;16.10;13.77;;;;;;;;;;4950049;29;20790;-79
2021/03/24 08:54:22;;;;;;;16.40;14.70;;;;;;;;;;4949579;29;20511;-77
2021/03/24 08:56:51;;;;;;;17.80;14.00;;;;;;;;;;4950215;29;20434;-78
2021/03/24 08:59:37;;;;;;;16.80;12.90;;;;;;;;;;4949108;29;20416;-77
2021/03/24 09:02:09;;;;;;;17.83;14.40;;;;;;;;;;4949988;29;20563;-78
2021/03/24 09:04:52;;;;;;;19.20;14.87;;;;;;;;;;4932855;29;20443;-78
2021/03/24 09:07:20;;;;;;;20.77;15.20;;;;;;;;;;4948208;29;20425;-79
2021/03/24 09:09:52;;;;;;;15.00;13.40;;;;;;;;;;4932001;29;20450;-80
2021/03/24 09:12:18;;;;;;;16.30;14.53;;;;;;;;;;4951714;29;20408;-80
2021/03/24 09:14:53;;;;;;;14.90;13.40;;;;;;;;;;4952012;29;20474;-80
2021/03/24 09:17:29;;;;;;;14.40;12.97;;;;;;;;;;4952384;29;20902;-81
2021/03/24 09:20:01;;;;;;;14.80;13.27;;;;;;;;;;4952061;29;20934;-79
2021/03/24 09:22:43;;;;;;;15.80;12.87;;;;;;;;;;4951803;29;20455;-80
2021/03/24 09:25:25;;;;;;;16.87;12.77;;;;;;;;;;4952184;29;20454;-81
2021/03/24 09:28:20;;;;;;;18.97;15.87;;;;;;;;;;4951555;29;20487;-82
2021/03/24 09:30:47;;;;;;;16.87;13.60;;;;;;;;;;4923608;29;20439;-79
2021/03/24 09:33:28;;;;;;;16.93;13.93;;;;;;;;;;4951461;29;20455;-77
2021/03/24 09:36:06;;;;;;;14.43;12.90;;;;;;;;;;4934693;29;20781;-78
2021/03/24 09:38:34;;;;;;;14.70;12.57;;;;;;;;;;4951656;29;20821;-78
2021/03/24 09:41:29;;;;;;;15.83;14.17;;;;;;;;;;4952000;29;20938;-78
2021/03/24 09:44:03;;;;;;;14.57;12.97;;;;;;;;;;4935147;29;20451;-79
2021/03/24 09:46:52;;;;;;;14.33;12.90;;;;;;;;;;4951623;29;20491;-78
2021/03/24 09:49:28;;;;;;;15.30;13.03;;;;;;;;;;4953815;28;20420;-78
2021/03/24 09:51:57;;;;;;;17.00;14.47;;;;;;;;;;4937632;28;20441;-80
2021/03/24 09:57:29;;;;;;;17.40;14.43;;;;;;;;;;4956265;29;20415;-79
2021/03/24 10:00:10;;;;;;;15.67;14.10;;;;;;;;;;4953967;29;20506;-78
2021/03/24 10:02:46;;;;;;;15.50;13.90;;;;;;;;;;4954141;29;20478;-78
2021/03/24 10:05:14;;;;;;;21.30;13.97;;;;;;;;;;4954186;29;20404;-79
2021/03/24 10:07:42;;;;;;;14.93;13.20;;;;;;;;;;4953942;29;20431;-79
2021/03/24 10:13:25;;;;;;;15.93;14.37;;;;;;;;;;4954533;29;20502;-79
2021/03/24 10:16:14;;;;;;;14.60;13.20;;;;;;;;;;4954390;29;20893;-79
2021/03/24 10:19:01;;;;;;;14.70;13.20;;;;;;;;;;4929621;29;20430;-79
2021/03/24 10:21:32;;;;;;;14.30;11.93;;;;;;;;;;4954554;29;20867;-80
2021/03/24 10:24:03;;;;;;;18.23;12.97;;;;;;;;;;4954305;29;20435;-80
2021/03/24 10:29:38;;;;;;;17.97;12.60;;;;;;;;;;4954058;29;20751;-79
2021/03/24 10:32:06;;;;;;;15.90;12.87;;;;;;;;;;4954036;29;20420;-79
2021/03/24 10:34:33;;;;;;;13.13;11.93;;;;;;;;;;4953871;29;20910;-78
2021/03/24 10:37:15;;;;;;;13.50;12.10;;;;;;;;;;4954167;29;20427;-81
2021/03/24 10:39:45;;;;;;;13.20;11.53;;;;;;;;;;4955270;29;20422;-79
2021/03/24 10:42:26;;;;;;;14.77;13.27;;;;;;;;;;4955671;29;20817;-80
2021/03/24 10:44:57;;;;;;;14.70;13.30;;;;;;;;;;4955676;29;20819;-81
2021/03/24 10:47:30;;;;;;;16.03;12.90;;;;;;;;;;4955173;29;20420;-78
2021/03/24 10:49:59;;;;;;;13.53;12.20;;;;;;;;;;4955267;29;20478;-79
2021/03/24 10:52:29;;;;;;;14.00;11.37;;;;;;;;;;4954541;29;20525;-78
2021/03/24 10:55:00;;;;;;;13.57;11.00;;;;;;;;;;4955497;29;20886;-78
2021/03/24 10:57:31;;;;;;;12.80;11.10;;;;;;;;;;4955454;29;20412;-81
2021/03/24 11:00:12;;;;;;;13.80;12.40;;;;;;;;;;4936777;29;20450;-78
2021/03/24 11:02:54;;;;;;;16.30;11.53;;;;;;;;;;4955082;29;20478;-79
2021/03/24 11:05:27;;;;;;;12.80;11.60;;;;;;;;;;4955120;29;20420;-79
2021/03/24 11:07:53;;;;;;;13.30;11.87;;;;;;;;;;4955062;29;20408;-78
2021/03/24 11:10:34;;;;;;;12.67;11.20;;;;;;;;;;4954828;29;20713;-79
2021/03/24 11:13:04;;;;;;;13.87;12.47;;;;;;;;;;4955091;29;20404;-78
2021/03/24 11:15:40;;;;;;;13.67;12.27;;;;;;;;;;4954794;29;20418;-78
2021/03/24 11:18:08;;;;;;;13.20;11.00;;;;;;;;;;4954438;29;20428;-79
2021/03/24 11:20:40;;;;;;;13.27;11.97;;;;;;;;;;4954573;29;20431;-79
2021/03/24 11:23:09;;;;;;;14.13;12.53;;;;;;;;;;4953954;29;20470;-79
2021/03/24 11:25:49;;;;;;;15.10;13.80;;;;;;;;;;4953921;29;20420;-78
2021/03/24 11:28:31;;;;;;;12.57;11.30;;;;;;;;;;4954209;29;20461;-79
2021/03/24 11:31:06;;;;;;;13.60;11.50;;;;;;;;;;4954134;29;20420;-79
2021/03/24 11:33:35;;;;;;;12.10;10.47;;;;;;;;;;4954133;29;20403;-78
2021/03/24 11:36:05;;;;;;;15.57;13.70;;;;;;;;;;4952363;29;20416;-78
2021/03/24 11:38:40;;;;;;;18.17;15.67;;;;;;;;;;4953304;29;20415;-78
2021/03/24 11:41:14;;;;;;;16.73;12.30;;;;;;;;;;4953101;29;20463;-78
2021/03/24 11:43:42;;;;;;;11.17;10.07;;;;;;;;;;4952518;29;20471;-79
2021/03/24 11:46:08;;;;;;;11.70;10.67;;;;;;;;;;4952472;29;20416;-78
2021/03/24 11:48:41;;;;;;;13.77;11.73;;;;;;;;;;4950425;29;20431;-80
2021/03/24 11:51:22;;;;;;;14.73;10.53;;;;;;;;;;4953564;29;20428;-78
2021/03/24 11:53:59;;;;;;;18.90;10.33;;;;;;;;;;4953913;29;20470;-81
2021/03/24 11:56:40;;;;;;;10.30;9.20;;;;;;;;;;4953557;29;20462;-79
2021/03/24 11:59:12;;;;;;;10.53;8.90;;;;;;;;;;4953399;29;20512;-79
2021/03/24 12:01:42;;;;;;;9.40;8.40;;;;;;;;;;4953498;29;20415;-79
2021/03/24 12:04:23;;;;;;;10.37;8.60;;;;;;;;;;4953725;29;20431;-79
2021/03/24 12:06:55;;;;;;;11.30;8.73;;;;;;;;;;4953132;29;20407;-79
2021/03/24 12:09:23;;;;;;;8.53;7.73;;;;;;;;;;4953264;29;20911;-80
2021/03/24 12:11:49;;;;;;;9.27;7.80;;;;;;;;;;4952960;28;20970;-79
2021/03/24 12:14:24;;;;;;;9.83;8.83;;;;;;;;;;4952992;29;20454;-80
2021/03/24 12:16:52;;;;;;;8.47;7.67;;;;;;;;;;4953243;29;20499;-78
2021/03/24 12:19:27;;;;;;;8.20;6.47;;;;;;;;;;4953627;29;20511;-83
2021/03/24 12:21:55;;;;;;;8.27;7.37;;;;;;;;;;4952706;29;20549;-79
2021/03/24 12:24:35;;;;;;;10.13;6.07;;;;;;;;;;4935854;29;20542;-78
2021/03/24 12:27:12;;;;;;;7.33;6.23;;;;;;;;;;4948918;29;20415;-79
2021/03/24 12:29:39;;;;;;;7.17;6.47;;;;;;;;;;4951362;29;20403;-78
2021/03/24 12:32:07;;;;;;;7.33;6.53;;;;;;;;;;4951935;29;20423;-77
2021/03/24 12:34:42;;;;;;;6.50;5.40;;;;;;;;;;4951737;29;20474;-76
2021/03/24 12:37:20;;;;;;;6.23;5.73;;;;;;;;;;4934934;29;20515;-75
2021/03/24 12:39:47;;;;;;;6.03;5.43;;;;;;;;;;4952670;29;20781;-75
2021/03/24 12:42:13;;;;;;;7.23;6.53;;;;;;;;;;4952578;29;20589;-77
2021/03/24 12:44:44;;;;;;;6.40;5.80;;;;;;;;;;4953189;29;20439;-77
2021/03/24 12:47:30;;;;;;;5.90;5.30;;;;;;;;;;4952993;29;20410;-76
2021/03/24 12:50:08;;;;;;;5.80;5.20;;;;;;;;;;4952537;29;20502;-75
2021/03/24 12:52:41;;;;;;;7.20;4.67;;;;;;;;;;4952553;29;21022;-77
2021/03/24 12:55:08;;;;;;;5.23;4.73;;;;;;;;;;4952087;29;20920;-75
2021/03/24 12:57:53;;;;;;;7.63;6.20;;;;;;;;;;4952462;29;20424;-74
2021/03/24 13:00:19;;;;;;;8.13;6.87;;;;;;;;;;4952508;29;20876;-75
2021/03/24 13:02:59;;;;;;;7.67;6.90;;;;;;;;;;4952512;29;20606;-75
2021/03/24 13:05:37;;;;;;;7.23;6.53;;;;;;;;;;4952456;29;20462;-77
2021/03/24 13:08:11;;;;;;;6.70;6.10;;;;;;;;;;4952490;29;20411;-77
2021/03/24 13:14:01;;;;;;;7.53;6.83;;;;;;;;;;4952506;29;20422;-76
2021/03/24 13:16:44;;;;;;;6.60;6.00;;;;;;;;;;4951270;29;20436;-82
2021/03/24 13:19:19;;;;;;;8.80;6.47;;;;;;;;;;4952311;29;20551;-80
2021/03/24 13:21:45;;;;;;;6.57;5.97;;;;;;;;;;4952182;29;20417;-80
2021/03/24 13:24:29;;;;;;;6.40;5.47;;;;;;;;;;4954770;28;20452;-79
2021/03/24 13:30:15;;;;;;;7.83;5.67;;;;;;;;;;4956267;29;20461;-79
2021/03/24 13:32:45;;;;;;;6.67;5.23;;;;;;;;;;4955835;29;20439;-79
2021/03/24 13:35:11;;;;;;;6.47;5.80;;;;;;;;;;4955935;29;20875;-80
2021/03/24 13:37:37;;;;;;;6.37;5.33;;;;;;;;;;4955790;29;20411;-81
2021/03/24 13:40:14;;;;;;;6.07;5.57;;;;;;;;;;4956035;29;20427;-80
2021/03/24 13:45:43;;;;;;;7.60;5.47;;;;;;;;;;4956099;29;20423;-79
2021/03/24 13:48:15;;;;;;;5.60;5.00;;;;;;;;;;4955843;29;20411;-79
2021/03/24 13:50:44;;;;;;;5.60;4.93;;;;;;;;;;4955667;29;20422;-79
2021/03/24 13:53:18;;;;;;;7.30;5.47;;;;;;;;;;4955567;29;20479;-79
2021/03/24 14:01:56;;;;;;;6.63;5.70;;;;;;;;;;4955405;29;20745;-77
2021/03/24 14:04:22;;;;;;;6.50;5.80;;;;;;;;;;4955390;29;20408;-80
2021/03/24 14:06:49;;;;;;;7.80;6.13;;;;;;;;;;4955644;29;20414;-79
2021/03/24 14:09:30;;;;;;;8.23;6.70;;;;;;;;;;4955837;29;20415;-80
2021/03/24 14:11:56;;;;;;;8.80;5.57;;;;;;;;;;4955225;29;20416;-79
2021/03/24 14:14:22;;;;;;;9.90;5.50;;;;;;;;;;4955334;29;20430;-76
2021/03/24 14:16:53;;;;;;;9.03;6.87;;;;;;;;;;4955574;29;20416;-79
2021/03/24 14:19:44;;;;;;;8.00;6.20;;;;;;;;;;4955635;29;20458;-76
2021/03/24 14:22:29;;;;;;;9.53;6.27;;;;;;;;;;4954758;29;20466;-75
2021/03/24 14:24:59;;;;;;;6.13;5.17;;;;;;;;;;4937894;29;20439;-81
2021/03/24 14:27:28;;;;;;;8.20;5.17;;;;;;;;;;4955394;29;20490;-80
2021/03/24 14:30:00;;;;;;;6.93;5.40;;;;;;;;;;4954985;29;20430;-77
2021/03/24 14:32:30;;;;;;;12.73;5.67;;;;;;;;;;4954699;29;20415;-78
2021/03/24 14:35:26;;;;;;;7.40;5.50;;;;;;;;;;4954299;28;20949;-79
2021/03/24 14:37:57;;;;;;;6.50;4.90;;;;;;;;;;4886491;29;20458;-75
2021/03/24 14:40:28;;;;;;;6.70;5.30;;;;;;;;;;4955174;29;20448;-80
2021/03/24 14:43:06;;;;;;;6.20;5.47;;;;;;;;;;4954903;29;20479;-81
2021/03/24 14:45:38;;;;;;;8.30;6.23;;;;;;;;;;4954786;29;20765;-80
2021/03/24 14:48:06;;;;;;;7.53;5.90;;;;;;;;;;4954495;29;20522;-78
2021/03/24 14:50:51;;;;;;;8.77;6.07;;;;;;;;;;4954329;29;20416;-81
2021/03/24 14:53:27;;;;;;;7.70;5.80;;;;;;;;;;4953671;29;20479;-78
2021/03/24 14:55:59;;;;;;;6.97;6.27;;;;;;;;;;4954170;29;20433;-77
2021/03/24 14:58:25;;;;;;;6.97;5.57;;;;;;;;;;4954606;29;20439;-80
2021/03/24 15:00:53;;;;;;;8.77;6.20;;;;;;;;;;4954080;29;20439;-78
2021/03/24 15:03:19;;;;;;;10.00;7.80;;;;;;;;;;4954141;29;20514;-78
2021/03/24 15:05:45;;;;;;;9.33;8.40;;;;;;;;;;4954001;29;20766;-78
2021/03/24 15:08:11;;;;;;;11.57;8.70;;;;;;;;;;4953417;29;20435;-79
2021/03/24 15:10:37;;;;;;;13.40;9.97;;;;;;;;;;4953154;29;20411;-80
2021/03/24 15:13:17;;;;;;;19.47;12.30;;;;;;;;;;4953189;29;20412;-80
2021/03/24 15:15:46;;;;;;;13.40;12.00;;;;;;;;;;4953258;29;20411;-79
2021/03/24 15:18:17;;;;;;;17.30;10.83;;;;;;;;;;4953484;29;20434;-81
2021/03/24 15:20:45;;;;;;;14.10;10.70;;;;;;;;;;4953339;29;20786;-82
2021/03/24 15:23:21;;;;;;;13.97;10.67;;;;;;;;;;4952451;29;20829;-79
2021/03/24 15:25:47;;;;;;;13.60;10.60;;;;;;;;;;4953115;29;20447;-83
2021/03/24 15:28:33;;;;;;;18.80;12.17;;;;;;;;;;4953224;29;20478;-78
2021/03/24 15:31:18;;;;;;;16.33;12.00;;;;;;;;;;4953001;29;20419;-77
2021/03/24 15:33:47;;;;;;;18.53;10.00;;;;;;;;;;4952925;29;20420;-82
2021/03/24 15:36:26;;;;;;;12.30;10.07;;;;;;;;;;4953547;29;20875;-79
2021/03/24 15:38:53;;;;;;;12.90;11.60;;;;;;;;;;4952983;29;20749;-80
2021/03/24 15:44:23;;;;;;;17.93;11.37;;;;;;;;;;4953274;29;21008;-81
2021/03/24 15:46:57;;;;;;;13.90;11.03;;;;;;;;;;4952546;28;20428;-79
2021/03/24 15:49:55;;;;;;;13.43;10.80;;;;;;;;;;4959079;29;20419;-80
2021/03/24 15:52:21;;;;;;;15.13;11.53;;;;;;;;;;4951834;29;20479;-80
2021/03/24 15:54:56;;;;;;;15.10;12.10;;;;;;;;;;4952375;29;21049;-80
2021/03/24 16:00:26;;;;;;;13.10;11.70;;;;;;;;;;4952327;29;20832;-81
2021/03/24 16:03:03;;;;;;;14.70;12.40;;;;;;;;;;4952717;29;20506;-79
2021/03/24 16:05:36;;;;;;;14.33;11.43;;;;;;;;;;4952516;29;20434;-80
2021/03/24 16:08:14;;;;;;;16.23;11.30;;;;;;;;;;4952342;29;20974;-81
2021/03/24 16:10:47;;;;;;;14.20;10.87;;;;;;;;;;4952102;29;21019;-77
2021/03/24 16:16:21;;;;;;;16.40;12.10;;;;;;;;;;4952549;29;20411;-77